sensor_id;sensor_type;location;lat;lon;timestamp;temperature;humidity
16578;DHT22;8401;52.528;13.340;2022-08-19T00:00:12;22.40;99.90
16578;DHT22;8401;52.528;13.340;2022-08-19T00:02:40;22.30;99.90
16578;DHT22;8401;52.528;13.340;2022-08-19T00:05:07;22.40;99.90
16578;DHT22;8401;52.528;13.340;2022-08-19T00:07:33;22.20;99.90
16578;DHT22;8401;52.528;13.340;2022-08-19T00:09:59;22.40;99.90
16578;DHT22;8401;52.528;13.340;2022-08-19T00:12:24;22.30;99.90
16578;DHT22;8401;52.528;13.340;2022-08-19T00:14:50;22.30;99.90
16578;DHT22;8401;52.528;13.340;2022-08-19T00:17:15;22.40;99.90
16578;DHT22;8401;52.528;13.340;2022-08-19T00:19:41;22.40;99.90
16578;DHT22;8401;52.528;13.340;2022-08-19T00:22:07;22.40;99.90
16578;DHT22;8401;52.528;13.340;2022-08-19T00:24:34;22.30;99.90
16578;DHT22;8401;52.528;13.340;2022-08-19T00:27:01;22.40;99.90
16578;DHT22;8401;52.528;13.340;2022-08-19T00:29:27;22.30;99.90
16578;DHT22;8401;52.528;13.340;2022-08-19T00:31:54;22.30;99.90
16578;DHT22;8401;52.528;13.340;2022-08-19T00:34:22;22.20;99.90
16578;DHT22;8401;52.528;13.340;2022-08-19T00:36:48;22.20;99.90
16578;DHT22;8401;52.528;13.340;2022-08-19T00:39:15;22.30;99.90
16578;DHT22;8401;52.528;13.340;2022-08-19T00:41:42;22.20;99.90
16578;DHT22;8401;52.528;13.340;2022-08-19T00:44:14;22.20;99.90
16578;DHT22;8401;52.528;13.340;2022-08-19T00:46:43;22.30;99.90
16578;DHT22;8401;52.528;13.340;2022-08-19T00:49:16;22.20;99.90
16578;DHT22;8401;52.528;13.340;2022-08-19T00:51:45;22.20;99.90
16578;DHT22;8401;52.528;13.340;2022-08-19T00:54:12;22.20;99.90
16578;DHT22;8401;52.528;13.340;2022-08-19T00:56:39;22.20;99.90
16578;DHT22;8401;52.528;13.340;2022-08-19T00:59:05;22.30;99.90
16578;DHT22;8401;52.528;13.340;2022-08-19T01:01:39;22.30;99.90
16578;DHT22;8401;52.528;13.340;2022-08-19T01:04:06;22.20;99.90
16578;DHT22;8401;52.528;13.340;2022-08-19T01:06:33;22.30;99.90
16578;DHT22;8401;52.528;13.340;2022-08-19T01:09:00;22.10;99.90
16578;DHT22;8401;52.528;13.340;2022-08-19T01:11:27;22.10;99.90
16578;DHT22;8401;52.528;13.340;2022-08-19T01:13:54;22.10;99.90
16578;DHT22;8401;52.528;13.340;2022-08-19T01:16:22;22.00;99.90
16578;DHT22;8401;52.528;13.340;2022-08-19T01:18:49;22.10;99.90
16578;DHT22;8401;52.528;13.340;2022-08-19T01:21:22;22.20;99.90
16578;DHT22;8401;52.528;13.340;2022-08-19T01:23:49;22.20;99.90
16578;DHT22;8401;52.528;13.340;2022-08-19T01:26:19;22.20;99.90
16578;DHT22;8401;52.528;13.340;2022-08-19T01:28:46;22.10;99.90
16578;DHT22;8401;52.528;13.340;2022-08-19T01:31:17;22.10;99.90
16578;DHT22;8401;52.528;13.340;2022-08-19T01:33:44;22.20;99.90
16578;DHT22;8401;52.528;13.340;2022-08-19T01:36:13;22.20;99.90
16578;DHT22;8401;52.528;13.340;2022-08-19T01:38:41;22.10;99.90
16578;DHT22;8401;52.528;13.340;2022-08-19T01:41:11;22.00;99.90
16578;DHT22;8401;52.528;13.340;2022-08-19T01:43:38;22.10;99.90
16578;DHT22;8401;52.528;13.340;2022-08-19T01:46:04;22.20;99.90
16578;DHT22;8401;52.528;13.340;2022-08-19T01:48:40;22.00;99.90
16578;DHT22;8401;52.528;13.340;2022-08-19T01:51:08;22.00;99.90
16578;DHT22;8401;52.528;13.340;2022-08-19T01:53:34;21.90;99.90
16578;DHT22;8401;52.528;13.340;2022-08-19T01:56:01;22.00;99.90
16578;DHT22;8401;52.528;13.340;2022-08-19T01:58:33;22.00;99.90
16578;DHT22;8401;52.528;13.340;2022-08-19T02:01:01;21.90;99.90
16578;DHT22;8401;52.528;13.340;2022-08-19T02:03:27;21.80;99.90
16578;DHT22;8401;52.528;13.340;2022-08-19T02:05:56;21.70;99.90
16578;DHT22;8401;52.528;13.340;2022-08-19T02:08:23;21.70;99.90
16578;DHT22;8401;52.528;13.340;2022-08-19T02:10:48;21.60;99.90
16578;DHT22;8401;52.528;13.340;2022-08-19T02:13:15;21.80;99.90
16578;DHT22;8401;52.528;13.340;2022-08-19T02:15:41;21.70;99.90
16578;DHT22;8401;52.528;13.340;2022-08-19T02:18:07;21.60;99.90
16578;DHT22;8401;52.528;13.340;2022-08-19T02:20:33;21.60;99.90
16578;DHT22;8401;52.528;13.340;2022-08-19T02:22:59;21.50;99.90
16578;DHT22;8401;52.528;13.340;2022-08-19T02:25:25;21.40;99.90
16578;DHT22;8401;52.528;13.340;2022-08-19T02:27:51;21.40;99.90
16578;DHT22;8401;52.528;13.340;2022-08-19T02:30:17;21.50;99.90
16578;DHT22;8401;52.528;13.340;2022-08-19T02:32:43;21.40;99.90
16578;DHT22;8401;52.528;13.340;2022-08-19T02:35:09;21.40;99.90
16578;DHT22;8401;52.528;13.340;2022-08-19T02:37:35;21.30;99.90
16578;DHT22;8401;52.528;13.340;2022-08-19T02:40:19;21.20;99.90
16578;DHT22;8401;52.528;13.340;2022-08-19T02:42:45;21.30;99.90
16578;DHT22;8401;52.528;13.340;2022-08-19T02:45:12;21.30;99.90
16578;DHT22;8401;52.528;13.340;2022-08-19T02:47:38;21.40;99.90
16578;DHT22;8401;52.528;13.340;2022-08-19T02:50:05;21.40;99.90
16578;DHT22;8401;52.528;13.340;2022-08-19T02:52:32;21.40;99.90
16578;DHT22;8401;52.528;13.340;2022-08-19T02:54:58;21.50;99.90
16578;DHT22;8401;52.528;13.340;2022-08-19T02:57:24;21.30;99.90
16578;DHT22;8401;52.528;13.340;2022-08-19T02:59:50;21.40;99.90
16578;DHT22;8401;52.528;13.340;2022-08-19T03:02:15;21.30;99.90
16578;DHT22;8401;52.528;13.340;2022-08-19T03:04:41;21.30;99.90
16578;DHT22;8401;52.528;13.340;2022-08-19T03:07:08;21.30;99.90
16578;DHT22;8401;52.528;13.340;2022-08-19T03:09:37;21.30;99.90
16578;DHT22;8401;52.528;13.340;2022-08-19T03:12:03;21.30;99.90
16578;DHT22;8401;52.528;13.340;2022-08-19T03:14:32;21.30;99.90
16578;DHT22;8401;52.528;13.340;2022-08-19T03:16:58;21.30;99.90
16578;DHT22;8401;52.528;13.340;2022-08-19T03:19:24;21.30;99.90
16578;DHT22;8401;52.528;13.340;2022-08-19T03:21:50;21.40;99.90
16578;DHT22;8401;52.528;13.340;2022-08-19T03:24:17;21.30;99.90
16578;DHT22;8401;52.528;13.340;2022-08-19T03:26:47;21.20;99.90
16578;DHT22;8401;52.528;13.340;2022-08-19T03:29:14;21.10;99.90
16578;DHT22;8401;52.528;13.340;2022-08-19T03:31:41;21.10;99.90
16578;DHT22;8401;52.528;13.340;2022-08-19T03:34:09;21.00;99.90
16578;DHT22;8401;52.528;13.340;2022-08-19T03:36:37;21.10;99.90
16578;DHT22;8401;52.528;13.340;2022-08-19T03:39:03;21.10;99.90
16578;DHT22;8401;52.528;13.340;2022-08-19T03:41:31;21.00;99.90
16578;DHT22;8401;52.528;13.340;2022-08-19T03:43:58;21.00;99.90
16578;DHT22;8401;52.528;13.340;2022-08-19T03:46:27;21.10;99.90
16578;DHT22;8401;52.528;13.340;2022-08-19T03:48:54;21.10;99.90
16578;DHT22;8401;52.528;13.340;2022-08-19T03:51:24;21.10;99.90
16578;DHT22;8401;52.528;13.340;2022-08-19T03:53:51;21.20;99.90
16578;DHT22;8401;52.528;13.340;2022-08-19T03:56:17;21.30;99.90
16578;DHT22;8401;52.528;13.340;2022-08-19T03:58:44;21.20;99.90
16578;DHT22;8401;52.528;13.340;2022-08-19T04:01:12;21.20;99.90
16578;DHT22;8401;52.528;13.340;2022-08-19T04:03:39;21.20;99.90
16578;DHT22;8401;52.528;13.340;2022-08-19T04:06:18;21.20;99.90
16578;DHT22;8401;52.528;13.340;2022-08-19T04:08:47;21.30;99.90
16578;DHT22;8401;52.528;13.340;2022-08-19T04:11:16;21.30;99.90
16578;DHT22;8401;52.528;13.340;2022-08-19T04:13:41;21.40;99.90
16578;DHT22;8401;52.528;13.340;2022-08-19T04:16:10;21.30;99.90
16578;DHT22;8401;52.528;13.340;2022-08-19T04:18:38;21.30;99.90
16578;DHT22;8401;52.528;13.340;2022-08-19T04:21:05;21.20;99.90
16578;DHT22;8401;52.528;13.340;2022-08-19T04:23:31;21.20;99.90
16578;DHT22;8401;52.528;13.340;2022-08-19T04:25:58;21.20;99.90
16578;DHT22;8401;52.528;13.340;2022-08-19T04:28:24;21.30;99.90
16578;DHT22;8401;52.528;13.340;2022-08-19T04:30:51;21.30;99.90
16578;DHT22;8401;52.528;13.340;2022-08-19T04:33:20;21.20;99.90
16578;DHT22;8401;52.528;13.340;2022-08-19T04:35:47;21.10;99.90
16578;DHT22;8401;52.528;13.340;2022-08-19T04:38:14;21.30;99.90
16578;DHT22;8401;52.528;13.340;2022-08-19T04:40:48;21.30;99.90
16578;DHT22;8401;52.528;13.340;2022-08-19T04:43:35;21.30;99.90
16578;DHT22;8401;52.528;13.340;2022-08-19T04:46:11;21.20;99.90
16578;DHT22;8401;52.528;13.340;2022-08-19T04:48:38;21.20;99.90
16578;DHT22;8401;52.528;13.340;2022-08-19T04:51:09;21.30;99.90
16578;DHT22;8401;52.528;13.340;2022-08-19T04:53:37;21.30;99.90
16578;DHT22;8401;52.528;13.340;2022-08-19T04:56:14;21.40;99.90
16578;DHT22;8401;52.528;13.340;2022-08-19T04:58:42;21.50;99.90
16578;DHT22;8401;52.528;13.340;2022-08-19T05:01:13;21.50;99.90
16578;DHT22;8401;52.528;13.340;2022-08-19T05:03:39;21.50;99.90
16578;DHT22;8401;52.528;13.340;2022-08-19T05:06:10;21.60;99.90
16578;DHT22;8401;52.528;13.340;2022-08-19T05:08:37;21.50;99.90
16578;DHT22;8401;52.528;13.340;2022-08-19T05:11:10;21.60;99.90
16578;DHT22;8401;52.528;13.340;2022-08-19T05:13:36;21.60;99.90
16578;DHT22;8401;52.528;13.340;2022-08-19T05:16:02;21.60;99.90
16578;DHT22;8401;52.528;13.340;2022-08-19T05:18:28;21.40;99.90
16578;DHT22;8401;52.528;13.340;2022-08-19T05:21:15;21.60;99.90
16578;DHT22;8401;52.528;13.340;2022-08-19T05:24:00;21.70;99.90
16578;DHT22;8401;52.528;13.340;2022-08-19T05:26:25;21.60;99.90
16578;DHT22;8401;52.528;13.340;2022-08-19T05:28:54;21.70;99.90
16578;DHT22;8401;52.528;13.340;2022-08-19T05:31:21;22.00;99.90
16578;DHT22;8401;52.528;13.340;2022-08-19T05:33:47;22.00;99.90
16578;DHT22;8401;52.528;13.340;2022-08-19T05:36:12;21.90;99.90
16578;DHT22;8401;52.528;13.340;2022-08-19T05:38:39;21.90;99.90
16578;DHT22;8401;52.528;13.340;2022-08-19T05:41:10;22.00;99.90
16578;DHT22;8401;52.528;13.340;2022-08-19T05:43:36;21.90;99.90
16578;DHT22;8401;52.528;13.340;2022-08-19T05:46:03;22.00;99.90
16578;DHT22;8401;52.528;13.340;2022-08-19T05:48:31;22.10;99.90
16578;DHT22;8401;52.528;13.340;2022-08-19T05:50:57;22.20;99.90
16578;DHT22;8401;52.528;13.340;2022-08-19T05:53:24;22.30;99.90
16578;DHT22;8401;52.528;13.340;2022-08-19T05:55:50;22.30;99.90
16578;DHT22;8401;52.528;13.340;2022-08-19T05:58:16;22.30;99.90
16578;DHT22;8401;52.528;13.340;2022-08-19T06:00:43;22.50;99.90
16578;DHT22;8401;52.528;13.340;2022-08-19T06:03:09;22.50;99.90
16578;DHT22;8401;52.528;13.340;2022-08-19T06:05:35;22.50;99.90
16578;DHT22;8401;52.528;13.340;2022-08-19T06:08:01;22.70;99.90
16578;DHT22;8401;52.528;13.340;2022-08-19T06:10:27;22.80;99.90
16578;DHT22;8401;52.528;13.340;2022-08-19T06:12:53;22.60;99.90
16578;DHT22;8401;52.528;13.340;2022-08-19T06:15:19;22.50;99.90
16578;DHT22;8401;52.528;13.340;2022-08-19T06:17:45;22.50;99.90
16578;DHT22;8401;52.528;13.340;2022-08-19T06:20:13;22.60;99.90
16578;DHT22;8401;52.528;13.340;2022-08-19T06:22:44;22.60;99.90
16578;DHT22;8401;52.528;13.340;2022-08-19T06:25:11;22.70;99.90
16578;DHT22;8401;52.528;13.340;2022-08-19T06:27:37;22.70;99.90
16578;DHT22;8401;52.528;13.340;2022-08-19T06:30:04;22.70;99.90
16578;DHT22;8401;52.528;13.340;2022-08-19T06:32:30;22.90;99.90
16578;DHT22;8401;52.528;13.340;2022-08-19T06:34:56;23.00;99.90
16578;DHT22;8401;52.528;13.340;2022-08-19T06:37:21;23.00;99.90
16578;DHT22;8401;52.528;13.340;2022-08-19T06:39:48;23.10;99.90
16578;DHT22;8401;52.528;13.340;2022-08-19T06:42:14;23.20;99.90
16578;DHT22;8401;52.528;13.340;2022-08-19T06:44:45;23.40;99.90
16578;DHT22;8401;52.528;13.340;2022-08-19T06:47:17;23.20;99.90
16578;DHT22;8401;52.528;13.340;2022-08-19T06:49:43;23.20;99.90
16578;DHT22;8401;52.528;13.340;2022-08-19T06:52:09;22.90;99.90
16578;DHT22;8401;52.528;13.340;2022-08-19T06:54:37;22.90;99.90
16578;DHT22;8401;52.528;13.340;2022-08-19T06:57:03;22.90;99.90
16578;DHT22;8401;52.528;13.340;2022-08-19T06:59:30;22.80;99.90
16578;DHT22;8401;52.528;13.340;2022-08-19T07:02:00;22.80;99.90
16578;DHT22;8401;52.528;13.340;2022-08-19T07:04:28;22.80;99.90
16578;DHT22;8401;52.528;13.340;2022-08-19T07:07:14;22.80;99.90
16578;DHT22;8401;52.528;13.340;2022-08-19T07:09:42;22.80;99.90
16578;DHT22;8401;52.528;13.340;2022-08-19T07:12:10;22.90;99.90
16578;DHT22;8401;52.528;13.340;2022-08-19T07:14:38;22.90;99.90
16578;DHT22;8401;52.528;13.340;2022-08-19T07:17:09;23.10;99.90
16578;DHT22;8401;52.528;13.340;2022-08-19T07:19:35;23.20;99.90
16578;DHT22;8401;52.528;13.340;2022-08-19T07:22:04;23.20;99.90
16578;DHT22;8401;52.528;13.340;2022-08-19T07:24:31;23.40;99.90
16578;DHT22;8401;52.528;13.340;2022-08-19T07:26:59;23.20;99.90
16578;DHT22;8401;52.528;13.340;2022-08-19T07:29:27;23.50;99.90
16578;DHT22;8401;52.528;13.340;2022-08-19T07:31:54;23.40;99.90
16578;DHT22;8401;52.528;13.340;2022-08-19T07:34:25;23.60;99.90
16578;DHT22;8401;52.528;13.340;2022-08-19T07:36:51;23.50;99.90
16578;DHT22;8401;52.528;13.340;2022-08-19T07:39:20;23.40;99.90
16578;DHT22;8401;52.528;13.340;2022-08-19T07:41:47;23.50;99.90
16578;DHT22;8401;52.528;13.340;2022-08-19T07:44:13;23.60;99.90
16578;DHT22;8401;52.528;13.340;2022-08-19T07:46:42;23.50;99.90
16578;DHT22;8401;52.528;13.340;2022-08-19T07:49:09;23.50;99.90
16578;DHT22;8401;52.528;13.340;2022-08-19T07:51:40;23.30;99.90
16578;DHT22;8401;52.528;13.340;2022-08-19T07:54:05;23.30;99.90
16578;DHT22;8401;52.528;13.340;2022-08-19T07:56:31;23.20;99.90
16578;DHT22;8401;52.528;13.340;2022-08-19T07:58:57;23.10;99.90
16578;DHT22;8401;52.528;13.340;2022-08-19T08:01:25;23.30;99.90
16578;DHT22;8401;52.528;13.340;2022-08-19T08:03:52;23.40;99.90
16578;DHT22;8401;52.528;13.340;2022-08-19T08:06:36;23.50;99.90
16578;DHT22;8401;52.528;13.340;2022-08-19T08:09:26;23.40;99.90
16578;DHT22;8401;52.528;13.340;2022-08-19T08:11:56;23.20;99.90
16578;DHT22;8401;52.528;13.340;2022-08-19T08:14:27;23.30;99.90
16578;DHT22;8401;52.528;13.340;2022-08-19T08:16:53;23.40;99.90
16578;DHT22;8401;52.528;13.340;2022-08-19T08:19:21;23.40;99.90
16578;DHT22;8401;52.528;13.340;2022-08-19T08:21:47;23.40;99.90
16578;DHT22;8401;52.528;13.340;2022-08-19T08:24:13;23.40;99.90
16578;DHT22;8401;52.528;13.340;2022-08-19T08:26:39;23.40;99.90
16578;DHT22;8401;52.528;13.340;2022-08-19T08:29:06;23.30;99.90
16578;DHT22;8401;52.528;13.340;2022-08-19T08:31:35;23.30;99.90
16578;DHT22;8401;52.528;13.340;2022-08-19T08:34:01;23.30;99.90
16578;DHT22;8401;52.528;13.340;2022-08-19T08:36:27;23.20;99.90
16578;DHT22;8401;52.528;13.340;2022-08-19T08:38:53;23.20;99.90
16578;DHT22;8401;52.528;13.340;2022-08-19T08:41:39;23.20;99.90
16578;DHT22;8401;52.528;13.340;2022-08-19T08:44:13;23.40;99.90
16578;DHT22;8401;52.528;13.340;2022-08-19T08:46:44;23.20;99.90
16578;DHT22;8401;52.528;13.340;2022-08-19T08:52:47;23.10;99.90
16578;DHT22;8401;52.528;13.340;2022-08-19T08:54:57;23.10;99.90
16578;DHT22;8401;52.528;13.340;2022-08-19T09:00:22;23.40;99.90
16578;DHT22;8401;52.528;13.340;2022-08-19T09:02:48;23.20;99.90
16578;DHT22;8401;52.528;13.340;2022-08-19T09:05:14;23.20;99.90
16578;DHT22;8401;52.528;13.340;2022-08-19T09:10:30;23.30;99.90
16578;DHT22;8401;52.528;13.340;2022-08-19T09:13:23;23.20;99.90
16578;DHT22;8401;52.528;13.340;2022-08-19T09:15:58;23.20;99.90
16578;DHT22;8401;52.528;13.340;2022-08-19T09:18:35;23.40;99.90
16578;DHT22;8401;52.528;13.340;2022-08-19T09:21:03;23.60;99.90
16578;DHT22;8401;52.528;13.340;2022-08-19T09:23:29;23.70;99.90
16578;DHT22;8401;52.528;13.340;2022-08-19T09:25:54;23.70;99.90
16578;DHT22;8401;52.528;13.340;2022-08-19T09:28:20;24.00;99.90
16578;DHT22;8401;52.528;13.340;2022-08-19T09:30:45;24.40;99.90
16578;DHT22;8401;52.528;13.340;2022-08-19T09:33:11;24.70;99.90
16578;DHT22;8401;52.528;13.340;2022-08-19T09:35:37;24.50;99.90
16578;DHT22;8401;52.528;13.340;2022-08-19T09:38:02;24.30;99.90
16578;DHT22;8401;52.528;13.340;2022-08-19T09:40:29;24.10;99.90
16578;DHT22;8401;52.528;13.340;2022-08-19T09:42:55;23.90;99.90
16578;DHT22;8401;52.528;13.340;2022-08-19T09:45:22;24.00;99.90
16578;DHT22;8401;52.528;13.340;2022-08-19T09:47:52;24.10;99.90
16578;DHT22;8401;52.528;13.340;2022-08-19T09:50:18;24.50;99.90
16578;DHT22;8401;52.528;13.340;2022-08-19T09:52:44;24.40;99.90
16578;DHT22;8401;52.528;13.340;2022-08-19T09:55:10;24.30;99.90
16578;DHT22;8401;52.528;13.340;2022-08-19T09:57:37;24.40;99.90
16578;DHT22;8401;52.528;13.340;2022-08-19T10:00:05;24.50;99.90
16578;DHT22;8401;52.528;13.340;2022-08-19T10:02:32;24.40;99.90
16578;DHT22;8401;52.528;13.340;2022-08-19T10:04:57;24.10;99.90
16578;DHT22;8401;52.528;13.340;2022-08-19T10:07:42;24.10;99.90
16578;DHT22;8401;52.528;13.340;2022-08-19T10:10:08;24.10;99.90
16578;DHT22;8401;52.528;13.340;2022-08-19T10:12:34;24.30;99.90
16578;DHT22;8401;52.528;13.340;2022-08-19T10:15:01;24.40;99.90
16578;DHT22;8401;52.528;13.340;2022-08-19T10:17:27;24.10;99.90
16578;DHT22;8401;52.528;13.340;2022-08-19T10:19:52;23.90;99.90
16578;DHT22;8401;52.528;13.340;2022-08-19T10:22:19;23.90;99.90
16578;DHT22;8401;52.528;13.340;2022-08-19T10:24:47;23.80;99.90
16578;DHT22;8401;52.528;13.340;2022-08-19T10:27:14;23.90;99.90
16578;DHT22;8401;52.528;13.340;2022-08-19T10:29:40;24.00;99.90
16578;DHT22;8401;52.528;13.340;2022-08-19T10:32:07;24.10;99.90
16578;DHT22;8401;52.528;13.340;2022-08-19T10:34:35;24.60;99.90
16578;DHT22;8401;52.528;13.340;2022-08-19T10:37:02;24.30;99.90
16578;DHT22;8401;52.528;13.340;2022-08-19T10:39:32;24.20;99.90
16578;DHT22;8401;52.528;13.340;2022-08-19T10:41:58;24.10;99.90
16578;DHT22;8401;52.528;13.340;2022-08-19T10:44:25;24.00;99.90
16578;DHT22;8401;52.528;13.340;2022-08-19T10:46:50;24.00;99.90
16578;DHT22;8401;52.528;13.340;2022-08-19T10:49:17;23.80;99.90
16578;DHT22;8401;52.528;13.340;2022-08-19T10:51:44;23.90;99.90
16578;DHT22;8401;52.528;13.340;2022-08-19T10:54:28;24.00;99.90
16578;DHT22;8401;52.528;13.340;2022-08-19T10:57:14;24.20;99.90
16578;DHT22;8401;52.528;13.340;2022-08-19T10:59:39;23.90;99.90
16578;DHT22;8401;52.528;13.340;2022-08-19T11:02:08;23.80;99.90
16578;DHT22;8401;52.528;13.340;2022-08-19T11:04:35;23.60;99.90
16578;DHT22;8401;52.528;13.340;2022-08-19T11:07:02;23.80;99.90
16578;DHT22;8401;52.528;13.340;2022-08-19T11:09:28;23.90;99.90
16578;DHT22;8401;52.528;13.340;2022-08-19T11:11:54;23.60;99.90
16578;DHT22;8401;52.528;13.340;2022-08-19T11:14:23;23.60;99.90
16578;DHT22;8401;52.528;13.340;2022-08-19T11:16:51;23.60;99.90
16578;DHT22;8401;52.528;13.340;2022-08-19T11:19:19;23.60;99.90
16578;DHT22;8401;52.528;13.340;2022-08-19T11:21:47;23.70;99.90
16578;DHT22;8401;52.528;13.340;2022-08-19T11:24:19;23.90;99.90
16578;DHT22;8401;52.528;13.340;2022-08-19T11:26:46;23.90;99.90
16578;DHT22;8401;52.528;13.340;2022-08-19T11:29:13;23.90;99.90
16578;DHT22;8401;52.528;13.340;2022-08-19T11:31:41;23.90;99.90
16578;DHT22;8401;52.528;13.340;2022-08-19T11:34:10;23.90;99.90
16578;DHT22;8401;52.528;13.340;2022-08-19T11:36:39;24.00;99.90
16578;DHT22;8401;52.528;13.340;2022-08-19T11:39:06;24.00;99.90
16578;DHT22;8401;52.528;13.340;2022-08-19T11:41:33;24.20;99.90
16578;DHT22;8401;52.528;13.340;2022-08-19T11:43:58;24.20;99.90
16578;DHT22;8401;52.528;13.340;2022-08-19T11:46:26;24.10;99.90
16578;DHT22;8401;52.528;13.340;2022-08-19T11:48:55;24.00;99.90
16578;DHT22;8401;52.528;13.340;2022-08-19T11:51:23;24.00;99.90
16578;DHT22;8401;52.528;13.340;2022-08-19T11:53:50;24.00;99.90
16578;DHT22;8401;52.528;13.340;2022-08-19T11:56:17;24.10;99.90
16578;DHT22;8401;52.528;13.340;2022-08-19T11:58:44;24.00;99.90
16578;DHT22;8401;52.528;13.340;2022-08-19T12:01:12;24.00;99.90
16578;DHT22;8401;52.528;13.340;2022-08-19T12:03:38;23.80;99.90
16578;DHT22;8401;52.528;13.340;2022-08-19T12:06:06;23.90;99.90
16578;DHT22;8401;52.528;13.340;2022-08-19T12:08:31;23.90;99.90
16578;DHT22;8401;52.528;13.340;2022-08-19T12:10:57;23.90;99.90
16578;DHT22;8401;52.528;13.340;2022-08-19T12:13:23;23.90;99.90
16578;DHT22;8401;52.528;13.340;2022-08-19T12:15:49;23.80;99.90
16578;DHT22;8401;52.528;13.340;2022-08-19T12:18:15;23.80;99.90
16578;DHT22;8401;52.528;13.340;2022-08-19T12:20:42;23.90;99.90
16578;DHT22;8401;52.528;13.340;2022-08-19T12:23:09;24.00;99.90
16578;DHT22;8401;52.528;13.340;2022-08-19T12:25:36;24.10;99.90
16578;DHT22;8401;52.528;13.340;2022-08-19T12:28:02;24.20;99.90
16578;DHT22;8401;52.528;13.340;2022-08-19T12:30:27;24.30;99.90
16578;DHT22;8401;52.528;13.340;2022-08-19T12:32:53;24.20;99.90
16578;DHT22;8401;52.528;13.340;2022-08-19T12:35:19;24.40;99.90
16578;DHT22;8401;52.528;13.340;2022-08-19T12:37:48;24.40;99.90
16578;DHT22;8401;52.528;13.340;2022-08-19T12:40:15;24.50;99.90
16578;DHT22;8401;52.528;13.340;2022-08-19T12:42:41;24.30;99.90
16578;DHT22;8401;52.528;13.340;2022-08-19T12:45:08;24.60;99.90
16578;DHT22;8401;52.528;13.340;2022-08-19T12:47:35;24.40;99.90
16578;DHT22;8401;52.528;13.340;2022-08-19T12:50:01;24.40;99.90
16578;DHT22;8401;52.528;13.340;2022-08-19T12:52:27;24.80;99.90
16578;DHT22;8401;52.528;13.340;2022-08-19T12:54:54;24.80;99.90
16578;DHT22;8401;52.528;13.340;2022-08-19T12:57:22;25.20;99.90
16578;DHT22;8401;52.528;13.340;2022-08-19T12:59:52;25.70;99.90
16578;DHT22;8401;52.528;13.340;2022-08-19T13:02:18;25.90;99.90
16578;DHT22;8401;52.528;13.340;2022-08-19T13:04:45;25.50;99.90
16578;DHT22;8401;52.528;13.340;2022-08-19T13:07:11;26.00;99.90
16578;DHT22;8401;52.528;13.340;2022-08-19T13:09:36;26.20;99.90
16578;DHT22;8401;52.528;13.340;2022-08-19T13:12:03;26.30;99.90
16578;DHT22;8401;52.528;13.340;2022-08-19T13:14:33;26.00;99.90
16578;DHT22;8401;52.528;13.340;2022-08-19T13:16:59;25.60;99.90
16578;DHT22;8401;52.528;13.340;2022-08-19T13:19:24;25.70;99.90
16578;DHT22;8401;52.528;13.340;2022-08-19T13:21:51;25.50;99.90
16578;DHT22;8401;52.528;13.340;2022-08-19T13:24:17;25.00;99.90
16578;DHT22;8401;52.528;13.340;2022-08-19T13:26:43;24.90;99.90
16578;DHT22;8401;52.528;13.340;2022-08-19T13:29:09;24.80;99.90
16578;DHT22;8401;52.528;13.340;2022-08-19T13:31:53;24.90;99.90
16578;DHT22;8401;52.528;13.340;2022-08-19T13:34:37;24.80;99.90
16578;DHT22;8401;52.528;13.340;2022-08-19T13:37:04;24.90;99.90
16578;DHT22;8401;52.528;13.340;2022-08-19T13:39:34;24.80;99.90
16578;DHT22;8401;52.528;13.340;2022-08-19T13:42:00;24.70;99.90
16578;DHT22;8401;52.528;13.340;2022-08-19T13:44:27;24.70;99.90
16578;DHT22;8401;52.528;13.340;2022-08-19T13:47:05;24.70;99.90
16578;DHT22;8401;52.528;13.340;2022-08-19T13:49:33;25.00;99.90
16578;DHT22;8401;52.528;13.340;2022-08-19T13:51:58;25.10;99.90
16578;DHT22;8401;52.528;13.340;2022-08-19T13:54:24;25.20;99.90
16578;DHT22;8401;52.528;13.340;2022-08-19T13:56:50;25.20;99.90
16578;DHT22;8401;52.528;13.340;2022-08-19T13:59:15;25.00;99.90
16578;DHT22;8401;52.528;13.340;2022-08-19T14:01:43;24.90;99.90
16578;DHT22;8401;52.528;13.340;2022-08-19T14:04:08;24.80;99.90
16578;DHT22;8401;52.528;13.340;2022-08-19T14:06:34;24.90;99.90
16578;DHT22;8401;52.528;13.340;2022-08-19T14:09:00;24.70;99.90
16578;DHT22;8401;52.528;13.340;2022-08-19T14:11:27;24.80;99.90
16578;DHT22;8401;52.528;13.340;2022-08-19T14:13:53;24.80;99.90
16578;DHT22;8401;52.528;13.340;2022-08-19T14:16:19;24.70;99.90
16578;DHT22;8401;52.528;13.340;2022-08-19T14:18:45;24.70;99.90
16578;DHT22;8401;52.528;13.340;2022-08-19T14:21:20;24.60;99.90
16578;DHT22;8401;52.528;13.340;2022-08-19T14:23:49;24.70;99.90
16578;DHT22;8401;52.528;13.340;2022-08-19T14:26:17;24.80;99.90
16578;DHT22;8401;52.528;13.340;2022-08-19T14:28:43;24.80;99.90
16578;DHT22;8401;52.528;13.340;2022-08-19T14:31:15;24.90;99.90
16578;DHT22;8401;52.528;13.340;2022-08-19T14:33:44;24.80;99.90
16578;DHT22;8401;52.528;13.340;2022-08-19T14:36:10;24.70;99.90
16578;DHT22;8401;52.528;13.340;2022-08-19T14:38:35;24.60;99.90
16578;DHT22;8401;52.528;13.340;2022-08-19T14:41:19;24.70;99.90
16578;DHT22;8401;52.528;13.340;2022-08-19T14:43:47;24.60;99.90
16578;DHT22;8401;52.528;13.340;2022-08-19T14:46:15;24.50;99.90
16578;DHT22;8401;52.528;13.340;2022-08-19T14:48:41;24.60;99.90
16578;DHT22;8401;52.528;13.340;2022-08-19T14:51:06;24.80;99.90
16578;DHT22;8401;52.528;13.340;2022-08-19T14:53:33;24.60;99.90
16578;DHT22;8401;52.528;13.340;2022-08-19T14:56:01;24.60;99.90
16578;DHT22;8401;52.528;13.340;2022-08-19T14:58:28;24.40;99.90
16578;DHT22;8401;52.528;13.340;2022-08-19T15:00:53;24.50;99.90
16578;DHT22;8401;52.528;13.340;2022-08-19T15:03:19;24.50;99.90
16578;DHT22;8401;52.528;13.340;2022-08-19T15:05:44;24.60;99.90
16578;DHT22;8401;52.528;13.340;2022-08-19T15:08:10;24.60;99.90
16578;DHT22;8401;52.528;13.340;2022-08-19T15:10:38;24.40;99.90
16578;DHT22;8401;52.528;13.340;2022-08-19T15:13:04;24.30;99.90
16578;DHT22;8401;52.528;13.340;2022-08-19T15:15:29;24.20;99.90
16578;DHT22;8401;52.528;13.340;2022-08-19T15:17:55;24.30;99.90
16578;DHT22;8401;52.528;13.340;2022-08-19T15:20:27;24.40;99.90
16578;DHT22;8401;52.528;13.340;2022-08-19T15:22:53;24.30;99.90
16578;DHT22;8401;52.528;13.340;2022-08-19T15:25:19;24.20;99.90
16578;DHT22;8401;52.528;13.340;2022-08-19T15:27:46;24.20;99.90
16578;DHT22;8401;52.528;13.340;2022-08-19T15:30:12;24.20;99.90
16578;DHT22;8401;52.528;13.340;2022-08-19T15:32:38;24.00;99.90
16578;DHT22;8401;52.528;13.340;2022-08-19T15:35:06;23.90;99.90
16578;DHT22;8401;52.528;13.340;2022-08-19T15:37:32;23.80;99.90
16578;DHT22;8401;52.528;13.340;2022-08-19T15:39:57;23.70;99.90
16578;DHT22;8401;52.528;13.340;2022-08-19T15:42:23;23.80;99.90